sensor_id;sensor_type;location;lat;lon;timestamp;temperature;humidity
439;DHT22;206;48.782;9.252;2022-09-09T00:04:00;17.10;54.60
439;DHT22;206;48.782;9.252;2022-09-09T00:06:50;17.10;54.80
439;DHT22;206;48.782;9.252;2022-09-09T00:09:21;17.10;54.80
439;DHT22;206;48.782;9.252;2022-09-09T00:12:02;17.10;54.20
439;DHT22;206;48.782;9.252;2022-09-09T00:17:15;17.00;55.30
439;DHT22;206;48.782;9.252;2022-09-09T00:22:23;16.90;55.80
439;DHT22;206;48.782;9.252;2022-09-09T00:25:16;16.90;55.70
439;DHT22;206;48.782;9.252;2022-09-09T00:27:48;16.90;56.10
439;DHT22;206;48.782;9.252;2022-09-09T00:30:25;16.90;55.70
439;DHT22;206;48.782;9.252;2022-09-09T00:33:09;16.90;56.00
439;DHT22;206;48.782;9.252;2022-09-09T00:35:39;16.90;56.40
439;DHT22;206;48.782;9.252;2022-09-09T00:38:30;17.00;55.20
439;DHT22;206;48.782;9.252;2022-09-09T00:41:17;16.90;55.40
439;DHT22;206;48.782;9.252;2022-09-09T00:43:51;17.00;55.40
439;DHT22;206;48.782;9.252;2022-09-09T00:54:38;17.00;54.80
439;DHT22;206;48.782;9.252;2022-09-09T00:57:26;17.10;54.20
439;DHT22;206;48.782;9.252;2022-09-09T01:00:33;17.10;54.30
439;DHT22;206;48.782;9.252;2022-09-09T01:06:16;17.10;54.40
439;DHT22;206;48.782;9.252;2022-09-09T01:11:27;17.10;54.00
439;DHT22;206;48.782;9.252;2022-09-09T01:14:10;17.10;54.80
439;DHT22;206;48.782;9.252;2022-09-09T01:16:38;17.10;54.60
439;DHT22;206;48.782;9.252;2022-09-09T01:19:07;17.10;53.30
439;DHT22;206;48.782;9.252;2022-09-09T01:21:53;17.10;52.00
439;DHT22;206;48.782;9.252;2022-09-09T01:24:25;17.10;51.70
439;DHT22;206;48.782;9.252;2022-09-09T01:26:56;17.20;51.40
439;DHT22;206;48.782;9.252;2022-09-09T01:29:24;17.20;51.40
439;DHT22;206;48.782;9.252;2022-09-09T01:32:01;17.20;51.60
439;DHT22;206;48.782;9.252;2022-09-09T01:34:31;17.30;51.20
439;DHT22;206;48.782;9.252;2022-09-09T01:37:12;17.30;50.20
439;DHT22;206;48.782;9.252;2022-09-09T01:39:39;17.30;50.20
439;DHT22;206;48.782;9.252;2022-09-09T01:42:08;17.30;50.40
439;DHT22;206;48.782;9.252;2022-09-09T01:44:34;17.20;50.80
439;DHT22;206;48.782;9.252;2022-09-09T01:47:01;17.20;50.20
439;DHT22;206;48.782;9.252;2022-09-09T01:49:27;17.20;50.10
439;DHT22;206;48.782;9.252;2022-09-09T01:51:54;17.10;50.00
439;DHT22;206;48.782;9.252;2022-09-09T01:54:22;17.10;48.90
439;DHT22;206;48.782;9.252;2022-09-09T02:08:13;17.30;49.30
439;DHT22;206;48.782;9.252;2022-09-09T02:13:35;17.10;50.70
439;DHT22;206;48.782;9.252;2022-09-09T02:18:42;17.10;52.60
439;DHT22;206;48.782;9.252;2022-09-09T02:21:11;17.00;52.80
439;DHT22;206;48.782;9.252;2022-09-09T02:23:40;16.90;52.40
439;DHT22;206;48.782;9.252;2022-09-09T02:26:08;16.90;51.00
439;DHT22;206;48.782;9.252;2022-09-09T02:28:36;16.90;51.00
439;DHT22;206;48.782;9.252;2022-09-09T02:31:04;16.80;50.30
439;DHT22;206;48.782;9.252;2022-09-09T02:33:35;16.80;49.70
439;DHT22;206;48.782;9.252;2022-09-09T02:36:03;16.80;48.90
439;DHT22;206;48.782;9.252;2022-09-09T02:38:35;16.80;49.00
439;DHT22;206;48.782;9.252;2022-09-09T02:41:02;16.80;48.40
439;DHT22;206;48.782;9.252;2022-09-09T02:43:33;16.80;47.20
439;DHT22;206;48.782;9.252;2022-09-09T02:46:03;16.90;47.40
439;DHT22;206;48.782;9.252;2022-09-09T02:51:46;16.90;47.00
439;DHT22;206;48.782;9.252;2022-09-09T02:56:53;16.90;46.40
439;DHT22;206;48.782;9.252;2022-09-09T02:59:22;16.90;46.40
439;DHT22;206;48.782;9.252;2022-09-09T03:01:50;16.90;46.70
439;DHT22;206;48.782;9.252;2022-09-09T03:04:15;16.90;46.80
439;DHT22;206;48.782;9.252;2022-09-09T03:06:41;16.90;47.00
439;DHT22;206;48.782;9.252;2022-09-09T03:09:07;16.90;47.90
439;DHT22;206;48.782;9.252;2022-09-09T03:11:34;16.90;49.30
439;DHT22;206;48.782;9.252;2022-09-09T03:14:00;16.90;49.80
439;DHT22;206;48.782;9.252;2022-09-09T03:16:26;16.80;50.90
439;DHT22;206;48.782;9.252;2022-09-09T03:18:52;16.80;52.60
439;DHT22;206;48.782;9.252;2022-09-09T03:21:18;16.70;53.30
439;DHT22;206;48.782;9.252;2022-09-09T03:23:43;16.70;54.10
439;DHT22;206;48.782;9.252;2022-09-09T03:26:10;16.60;55.50
439;DHT22;206;48.782;9.252;2022-09-09T03:28:36;16.60;55.90
439;DHT22;206;48.782;9.252;2022-09-09T03:31:03;16.50;56.40
439;DHT22;206;48.782;9.252;2022-09-09T03:33:29;16.50;56.80
439;DHT22;206;48.782;9.252;2022-09-09T03:35:55;16.40;57.40
439;DHT22;206;48.782;9.252;2022-09-09T03:38:23;16.30;56.80
439;DHT22;206;48.782;9.252;2022-09-09T03:40:52;16.30;56.30
439;DHT22;206;48.782;9.252;2022-09-09T03:43:23;16.30;56.50
439;DHT22;206;48.782;9.252;2022-09-09T03:45:48;16.30;56.00
439;DHT22;206;48.782;9.252;2022-09-09T03:48:16;16.40;56.10
439;DHT22;206;48.782;9.252;2022-09-09T03:50:49;16.30;55.80
439;DHT22;206;48.782;9.252;2022-09-09T03:53:16;16.40;54.70
439;DHT22;206;48.782;9.252;2022-09-09T03:55:45;16.40;54.90
439;DHT22;206;48.782;9.252;2022-09-09T03:58:12;16.40;55.00
439;DHT22;206;48.782;9.252;2022-09-09T04:00:38;16.50;54.30
439;DHT22;206;48.782;9.252;2022-09-09T04:03:05;16.60;53.60
439;DHT22;206;48.782;9.252;2022-09-09T04:05:31;16.60;52.90
439;DHT22;206;48.782;9.252;2022-09-09T04:07:59;16.60;52.50
439;DHT22;206;48.782;9.252;2022-09-09T04:10:24;16.60;51.70
439;DHT22;206;48.782;9.252;2022-09-09T04:12:50;16.60;51.70
439;DHT22;206;48.782;9.252;2022-09-09T04:15:15;16.60;51.70
439;DHT22;206;48.782;9.252;2022-09-09T04:17:41;16.60;52.40
439;DHT22;206;48.782;9.252;2022-09-09T04:20:07;16.50;53.30
439;DHT22;206;48.782;9.252;2022-09-09T04:22:36;16.50;53.20
439;DHT22;206;48.782;9.252;2022-09-09T04:25:07;16.50;52.80
439;DHT22;206;48.782;9.252;2022-09-09T04:27:32;16.50;52.80
439;DHT22;206;48.782;9.252;2022-09-09T04:29:58;16.50;52.30
439;DHT22;206;48.782;9.252;2022-09-09T04:32:24;16.40;52.40
439;DHT22;206;48.782;9.252;2022-09-09T04:34:52;16.30;52.10
439;DHT22;206;48.782;9.252;2022-09-09T04:37:18;16.20;52.40
439;DHT22;206;48.782;9.252;2022-09-09T04:39:43;16.20;52.80
439;DHT22;206;48.782;9.252;2022-09-09T04:42:09;16.30;53.10
439;DHT22;206;48.782;9.252;2022-09-09T04:44:35;16.30;53.90
439;DHT22;206;48.782;9.252;2022-09-09T04:47:01;16.30;52.60
439;DHT22;206;48.782;9.252;2022-09-09T04:49:27;16.30;52.30
439;DHT22;206;48.782;9.252;2022-09-09T04:51:52;16.40;51.80
439;DHT22;206;48.782;9.252;2022-09-09T04:54:18;16.50;51.40
439;DHT22;206;48.782;9.252;2022-09-09T04:56:44;16.60;50.90
439;DHT22;206;48.782;9.252;2022-09-09T04:59:09;16.70;50.90
439;DHT22;206;48.782;9.252;2022-09-09T05:01:35;16.70;51.10
439;DHT22;206;48.782;9.252;2022-09-09T05:04:02;16.80;51.30
439;DHT22;206;48.782;9.252;2022-09-09T05:06:28;16.80;50.50
439;DHT22;206;48.782;9.252;2022-09-09T05:08:55;16.80;50.40
439;DHT22;206;48.782;9.252;2022-09-09T05:11:25;16.80;50.20
439;DHT22;206;48.782;9.252;2022-09-09T05:13:52;16.70;49.70
439;DHT22;206;48.782;9.252;2022-09-09T05:16:18;16.70;49.60
439;DHT22;206;48.782;9.252;2022-09-09T05:18:44;16.70;49.80
439;DHT22;206;48.782;9.252;2022-09-09T05:21:12;16.70;50.30
439;DHT22;206;48.782;9.252;2022-09-09T05:23:38;16.70;50.30
439;DHT22;206;48.782;9.252;2022-09-09T05:26:04;16.70;50.30
439;DHT22;206;48.782;9.252;2022-09-09T05:28:30;16.80;49.80
439;DHT22;206;48.782;9.252;2022-09-09T05:31:01;16.90;49.80
439;DHT22;206;48.782;9.252;2022-09-09T05:33:29;17.00;49.60
439;DHT22;206;48.782;9.252;2022-09-09T05:36:16;17.10;49.20
439;DHT22;206;48.782;9.252;2022-09-09T05:38:43;17.10;49.40
439;DHT22;206;48.782;9.252;2022-09-09T05:41:10;17.20;48.20
439;DHT22;206;48.782;9.252;2022-09-09T05:43:41;17.20;48.80
439;DHT22;206;48.782;9.252;2022-09-09T05:46:11;17.20;48.60
439;DHT22;206;48.782;9.252;2022-09-09T05:48:42;17.30;48.00
439;DHT22;206;48.782;9.252;2022-09-09T05:51:13;17.30;47.10
439;DHT22;206;48.782;9.252;2022-09-09T05:53:41;17.40;46.90
439;DHT22;206;48.782;9.252;2022-09-09T05:56:12;17.50;46.20
439;DHT22;206;48.782;9.252;2022-09-09T05:58:41;17.50;46.00
439;DHT22;206;48.782;9.252;2022-09-09T06:01:11;17.60;46.20
439;DHT22;206;48.782;9.252;2022-09-09T06:03:39;17.70;45.60
439;DHT22;206;48.782;9.252;2022-09-09T06:06:08;17.70;46.00
439;DHT22;206;48.782;9.252;2022-09-09T06:08:35;17.70;45.60
439;DHT22;206;48.782;9.252;2022-09-09T06:11:16;17.70;46.00
439;DHT22;206;48.782;9.252;2022-09-09T06:13:43;17.90;44.80
439;DHT22;206;48.782;9.252;2022-09-09T06:16:10;18.00;44.50
439;DHT22;206;48.782;9.252;2022-09-09T06:18:41;18.10;44.00
439;DHT22;206;48.782;9.252;2022-09-09T06:21:13;18.10;43.20
439;DHT22;206;48.782;9.252;2022-09-09T06:23:40;18.20;42.90
439;DHT22;206;48.782;9.252;2022-09-09T06:26:09;18.30;42.60
439;DHT22;206;48.782;9.252;2022-09-09T06:28:36;18.40;42.40
439;DHT22;206;48.782;9.252;2022-09-09T06:31:07;18.50;41.30
439;DHT22;206;48.782;9.252;2022-09-09T06:33:37;18.50;41.30
439;DHT22;206;48.782;9.252;2022-09-09T06:36:11;18.60;41.40
439;DHT22;206;48.782;9.252;2022-09-09T06:38:37;18.60;41.30
439;DHT22;206;48.782;9.252;2022-09-09T06:41:03;18.70;41.50
439;DHT22;206;48.782;9.252;2022-09-09T06:43:29;18.70;40.60
439;DHT22;206;48.782;9.252;2022-09-09T06:46:04;18.70;41.00
439;DHT22;206;48.782;9.252;2022-09-09T06:48:30;18.80;40.80
439;DHT22;206;48.782;9.252;2022-09-09T06:51:12;18.90;41.10
439;DHT22;206;48.782;9.252;2022-09-09T06:53:40;19.00;40.50
439;DHT22;206;48.782;9.252;2022-09-09T06:56:26;19.10;40.20
439;DHT22;206;48.782;9.252;2022-09-09T06:58:54;19.10;40.20
439;DHT22;206;48.782;9.252;2022-09-09T07:01:28;19.10;40.10
439;DHT22;206;48.782;9.252;2022-09-09T07:03:55;19.20;39.80
439;DHT22;206;48.782;9.252;2022-09-09T07:06:32;19.20;39.70
439;DHT22;206;48.782;9.252;2022-09-09T07:09:00;19.20;39.30
439;DHT22;206;48.782;9.252;2022-09-09T07:11:31;19.30;39.00
439;DHT22;206;48.782;9.252;2022-09-09T07:13:58;19.40;38.50
439;DHT22;206;48.782;9.252;2022-09-09T07:16:24;19.50;38.60
439;DHT22;206;48.782;9.252;2022-09-09T07:18:51;19.60;38.30
439;DHT22;206;48.782;9.252;2022-09-09T07:21:17;19.70;38.00
439;DHT22;206;48.782;9.252;2022-09-09T07:23:44;19.90;36.90
439;DHT22;206;48.782;9.252;2022-09-09T07:26:15;20.00;36.60
439;DHT22;206;48.782;9.252;2022-09-09T07:28:41;20.10;36.30
439;DHT22;206;48.782;9.252;2022-09-09T07:31:14;20.40;36.10
439;DHT22;206;48.782;9.252;2022-09-09T07:33:42;20.50;35.00
439;DHT22;206;48.782;9.252;2022-09-09T07:36:14;20.70;34.30
439;DHT22;206;48.782;9.252;2022-09-09T07:38:44;20.90;33.50
439;DHT22;206;48.782;9.252;2022-09-09T07:41:16;21.20;32.90
439;DHT22;206;48.782;9.252;2022-09-09T07:43:44;21.30;32.30
439;DHT22;206;48.782;9.252;2022-09-09T07:46:12;21.20;32.80
439;DHT22;206;48.782;9.252;2022-09-09T07:48:38;21.20;33.50
439;DHT22;206;48.782;9.252;2022-09-09T07:51:07;21.20;33.40
439;DHT22;206;48.782;9.252;2022-09-09T07:53:33;21.30;32.80
439;DHT22;206;48.782;9.252;2022-09-09T07:56:07;21.70;31.80
439;DHT22;206;48.782;9.252;2022-09-09T07:58:35;21.90;30.90
439;DHT22;206;48.782;9.252;2022-09-09T08:01:07;21.70;31.00
439;DHT22;206;48.782;9.252;2022-09-09T08:03:32;21.70;31.10
439;DHT22;206;48.782;9.252;2022-09-09T08:06:03;21.60;31.60
439;DHT22;206;48.782;9.252;2022-09-09T08:08:30;21.60;31.80
439;DHT22;206;48.782;9.252;2022-09-09T08:11:06;21.70;31.50
439;DHT22;206;48.782;9.252;2022-09-09T08:13:34;22.00;30.90
439;DHT22;206;48.782;9.252;2022-09-09T08:16:11;22.30;29.90
439;DHT22;206;48.782;9.252;2022-09-09T08:18:37;22.40;29.30
439;DHT22;206;48.782;9.252;2022-09-09T08:21:17;22.20;29.80
439;DHT22;206;48.782;9.252;2022-09-09T08:23:44;22.10;30.00
439;DHT22;206;48.782;9.252;2022-09-09T08:26:14;22.00;30.30
439;DHT22;206;48.782;9.252;2022-09-09T08:28:41;22.20;30.00
439;DHT22;206;48.782;9.252;2022-09-09T08:31:07;22.40;29.90
439;DHT22;206;48.782;9.252;2022-09-09T08:33:33;22.50;29.70
439;DHT22;206;48.782;9.252;2022-09-09T08:35:59;22.80;29.10
439;DHT22;206;48.782;9.252;2022-09-09T08:38:25;23.00;28.40
439;DHT22;206;48.782;9.252;2022-09-09T08:40:53;23.10;28.10
439;DHT22;206;48.782;9.252;2022-09-09T08:43:25;23.20;27.30
439;DHT22;206;48.782;9.252;2022-09-09T08:46:06;23.30;27.00
439;DHT22;206;48.782;9.252;2022-09-09T08:49:02;23.50;26.40
439;DHT22;206;48.782;9.252;2022-09-09T08:51:30;23.70;26.30
439;DHT22;206;48.782;9.252;2022-09-09T08:53:59;23.90;26.30
439;DHT22;206;48.782;9.252;2022-09-09T08:56:27;24.10;25.30
439;DHT22;206;48.782;9.252;2022-09-09T08:58:55;24.20;24.70
439;DHT22;206;48.782;9.252;2022-09-09T09:04:16;24.50;23.60
439;DHT22;206;48.782;9.252;2022-09-09T09:07:01;24.70;22.70
439;DHT22;206;48.782;9.252;2022-09-09T09:12:20;24.60;21.60
439;DHT22;206;48.782;9.252;2022-09-09T09:14:47;24.70;21.80
439;DHT22;206;48.782;9.252;2022-09-09T09:19:44;24.70;21.50
439;DHT22;206;48.782;9.252;2022-09-09T09:27:36;24.40;19.50
439;DHT22;206;48.782;9.252;2022-09-09T09:30:22;24.40;19.80
439;DHT22;206;48.782;9.252;2022-09-09T09:32:54;24.30;20.40
439;DHT22;206;48.782;9.252;2022-09-09T09:35:21;24.30;21.70
439;DHT22;206;48.782;9.252;2022-09-09T09:37:47;23.90;21.30
439;DHT22;206;48.782;9.252;2022-09-09T09:40:21;23.40;21.50
439;DHT22;206;48.782;9.252;2022-09-09T09:42:52;22.90;21.70
439;DHT22;206;48.782;9.252;2022-09-09T09:45:41;22.50;23.30
439;DHT22;206;48.782;9.252;2022-09-09T09:48:12;22.30;26.00
439;DHT22;206;48.782;9.252;2022-09-09T09:51:08;22.40;29.50
439;DHT22;206;48.782;9.252;2022-09-09T09:53:37;22.70;29.30
439;DHT22;206;48.782;9.252;2022-09-09T09:56:05;22.80;28.80
439;DHT22;206;48.782;9.252;2022-09-09T10:04:14;22.80;29.00
439;DHT22;206;48.782;9.252;2022-09-09T10:06:41;22.80;30.30
439;DHT22;206;48.782;9.252;2022-09-09T10:09:30;22.70;29.80
439;DHT22;206;48.782;9.252;2022-09-09T10:14:57;22.70;30.00
439;DHT22;206;48.782;9.252;2022-09-09T10:20:45;22.70;29.10
439;DHT22;206;48.782;9.252;2022-09-09T10:36:46;23.30;26.10
439;DHT22;206;48.782;9.252;2022-09-09T10:42:12;23.40;25.00
439;DHT22;206;48.782;9.252;2022-09-09T10:47:55;23.60;24.60
439;DHT22;206;48.782;9.252;2022-09-09T10:53:22;24.00;23.70
439;DHT22;206;48.782;9.252;2022-09-09T10:55:58;24.10;22.90
439;DHT22;206;48.782;9.252;2022-09-09T10:58:56;24.40;22.50
439;DHT22;206;48.782;9.252;2022-09-09T11:01:37;24.60;22.40
439;DHT22;206;48.782;9.252;2022-09-09T11:04:30;24.90;22.40
439;DHT22;206;48.782;9.252;2022-09-09T11:07:01;25.20;21.40
439;DHT22;206;48.782;9.252;2022-09-09T11:09:33;25.50;20.90
439;DHT22;206;48.782;9.252;2022-09-09T11:12:02;25.70;20.50
439;DHT22;206;48.782;9.252;2022-09-09T11:17:00;26.00;19.30
439;DHT22;206;48.782;9.252;2022-09-09T11:19:33;25.90;19.30
439;DHT22;206;48.782;9.252;2022-09-09T11:22:06;25.80;19.20
439;DHT22;206;48.782;9.252;2022-09-09T11:24:47;25.90;19.30
439;DHT22;206;48.782;9.252;2022-09-09T11:27:23;25.70;19.20
439;DHT22;206;48.782;9.252;2022-09-09T11:30:18;25.90;18.60
439;DHT22;206;48.782;9.252;2022-09-09T11:35:33;25.20;16.40
439;DHT22;206;48.782;9.252;2022-09-09T11:41:07;24.10;15.60
439;DHT22;206;48.782;9.252;2022-09-09T11:46:13;23.50;17.80
439;DHT22;206;48.782;9.252;2022-09-09T11:48:45;23.20;18.40
439;DHT22;206;48.782;9.252;2022-09-09T11:54:03;23.00;19.50
439;DHT22;206;48.782;9.252;2022-09-09T11:56:45;22.90;18.50
439;DHT22;206;48.782;9.252;2022-09-09T11:59:28;22.70;19.20
439;DHT22;206;48.782;9.252;2022-09-09T12:02:02;22.70;18.90
439;DHT22;206;48.782;9.252;2022-09-09T12:04:39;22.80;18.90
439;DHT22;206;48.782;9.252;2022-09-09T12:07:26;22.90;19.00
439;DHT22;206;48.782;9.252;2022-09-09T12:12:37;23.40;18.40
439;DHT22;206;48.782;9.252;2022-09-09T12:17:49;24.10;17.00
439;DHT22;206;48.782;9.252;2022-09-09T12:20:20;24.40;16.10
439;DHT22;206;48.782;9.252;2022-09-09T12:33:15;24.80;15.00
439;DHT22;206;48.782;9.252;2022-09-09T12:35:43;24.90;14.70
439;DHT22;206;48.782;9.252;2022-09-09T12:38:51;25.20;13.80
439;DHT22;206;48.782;9.252;2022-09-09T12:41:26;25.30;13.50
439;DHT22;206;48.782;9.252;2022-09-09T12:44:06;25.50;13.40
439;DHT22;206;48.782;9.252;2022-09-09T12:46:38;25.40;13.60
439;DHT22;206;48.782;9.252;2022-09-09T12:49:18;25.50;12.90
439;DHT22;206;48.782;9.252;2022-09-09T12:51:48;25.50;13.20
439;DHT22;206;48.782;9.252;2022-09-09T12:54:14;25.50;12.40
439;DHT22;206;48.782;9.252;2022-09-09T12:56:46;25.50;12.60
439;DHT22;206;48.782;9.252;2022-09-09T12:59:26;25.50;12.90
439;DHT22;206;48.782;9.252;2022-09-09T13:01:59;25.50;14.60
439;DHT22;206;48.782;9.252;2022-09-09T13:04:25;25.50;16.30
439;DHT22;206;48.782;9.252;2022-09-09T13:06:50;25.40;14.00
439;DHT22;206;48.782;9.252;2022-09-09T13:09:18;25.50;15.10
439;DHT22;206;48.782;9.252;2022-09-09T13:11:48;25.60;14.50
439;DHT22;206;48.782;9.252;2022-09-09T13:14:28;25.60;14.00
439;DHT22;206;48.782;9.252;2022-09-09T13:16:57;25.50;13.40
439;DHT22;206;48.782;9.252;2022-09-09T13:19:23;25.50;13.70
439;DHT22;206;48.782;9.252;2022-09-09T13:21:53;25.50;14.10
439;DHT22;206;48.782;9.252;2022-09-09T13:24:32;25.50;13.50
439;DHT22;206;48.782;9.252;2022-09-09T13:27:00;25.50;14.90
439;DHT22;206;48.782;9.252;2022-09-09T13:29:30;25.50;13.90
439;DHT22;206;48.782;9.252;2022-09-09T13:32:12;25.60;13.80
439;DHT22;206;48.782;9.252;2022-09-09T13:34:54;25.70;13.90
439;DHT22;206;48.782;9.252;2022-09-09T13:37:26;25.80;13.80
439;DHT22;206;48.782;9.252;2022-09-09T13:39:54;25.90;12.40
439;DHT22;206;48.782;9.252;2022-09-09T13:42:28;26.10;13.30
439;DHT22;206;48.782;9.252;2022-09-09T13:44:55;26.10;13.40
439;DHT22;206;48.782;9.252;2022-09-09T13:47:33;26.10;11.80
439;DHT22;206;48.782;9.252;2022-09-09T13:50:18;26.10;11.00
439;DHT22;206;48.782;9.252;2022-09-09T13:52:44;26.00;12.50
439;DHT22;206;48.782;9.252;2022-09-09T13:55:10;25.60;14.00
439;DHT22;206;48.782;9.252;2022-09-09T13:57:36;25.30;13.10
439;DHT22;206;48.782;9.252;2022-09-09T14:00:02;25.00;13.30
439;DHT22;206;48.782;9.252;2022-09-09T14:02:28;25.00;13.00
439;DHT22;206;48.782;9.252;2022-09-09T14:04:53;25.10;13.80
439;DHT22;206;48.782;9.252;2022-09-09T14:07:21;25.30;13.60
439;DHT22;206;48.782;9.252;2022-09-09T14:09:47;25.50;13.10
439;DHT22;206;48.782;9.252;2022-09-09T14:12:15;25.60;12.90
439;DHT22;206;48.782;9.252;2022-09-09T14:14:42;25.90;12.00
439;DHT22;206;48.782;9.252;2022-09-09T14:17:08;26.00;12.80
439;DHT22;206;48.782;9.252;2022-09-09T14:19:34;26.10;12.40
439;DHT22;206;48.782;9.252;2022-09-09T14:22:00;26.10;12.60
439;DHT22;206;48.782;9.252;2022-09-09T14:24:26;26.00;12.60
439;DHT22;206;48.782;9.252;2022-09-09T14:26:53;25.90;11.70
439;DHT22;206;48.782;9.252;2022-09-09T14:29:19;25.80;11.80
439;DHT22;206;48.782;9.252;2022-09-09T14:31:44;25.60;11.40
439;DHT22;206;48.782;9.252;2022-09-09T14:34:10;25.50;12.10
439;DHT22;206;48.782;9.252;2022-09-09T14:36:37;25.40;13.30
439;DHT22;206;48.782;9.252;2022-09-09T14:39:03;25.30;12.90
439;DHT22;206;48.782;9.252;2022-09-09T14:41:29;25.30;13.00
439;DHT22;206;48.782;9.252;2022-09-09T14:43:55;25.30;12.70
439;DHT22;206;48.782;9.252;2022-09-09T14:46:22;25.30;13.30
439;DHT22;206;48.782;9.252;2022-09-09T14:48:48;25.30;11.70
439;DHT22;206;48.782;9.252;2022-09-09T14:51:16;25.30;12.00
439;DHT22;206;48.782;9.252;2022-09-09T14:53:44;25.30;11.20
439;DHT22;206;48.782;9.252;2022-09-09T14:56:15;25.30;11.70
439;DHT22;206;48.782;9.252;2022-09-09T14:58:42;25.20;11.70
439;DHT22;206;48.782;9.252;2022-09-09T15:01:13;25.20;12.30
439;DHT22;206;48.782;9.252;2022-09-09T15:03:40;25.20;12.30
439;DHT22;206;48.782;9.252;2022-09-09T15:06:08;25.10;12.00
439;DHT22;206;48.782;9.252;2022-09-09T15:08:35;25.10;11.90
439;DHT22;206;48.782;9.252;2022-09-09T15:11:05;25.10;12.30
439;DHT22;206;48.782;9.252;2022-09-09T15:13:33;25.10;11.90
439;DHT22;206;48.782;9.252;2022-09-09T15:18:38;25.30;11.70
439;DHT22;206;48.782;9.252;2022-09-09T15:21:12;25.20;11.50
439;DHT22;206;48.782;9.252;2022-09-09T15:23:39;25.10;12.10
439;DHT22;206;48.782;9.252;2022-09-09T15:26:05;25.00;13.10
439;DHT22;206;48.782;9.252;2022-09-09T15:28:35;24.80;12.30
439;DHT22;206;48.782;9.252;2022-09-09T15:31:09;24.70;12.50
439;DHT22;206;48.782;9.252;2022-09-09T15:33:36;24.60;12.80
439;DHT22;206;48.782;9.252;2022-09-09T15:38:38;24.50;12.90
439;DHT22;206;48.782;9.252;2022-09-09T15:41:04;24.50;12.90
439;DHT22;206;48.782;9.252;2022-09-09T15:43:29;24.50;13.30
439;DHT22;206;48.782;9.252;2022-09-09T15:46:00;24.50;12.60
439;DHT22;206;48.782;9.252;2022-09-09T15:48:31;24.60;13.30
439;DHT22;206;48.782;9.252;2022-09-09T15:51:04;24.60;13.50
439;DHT22;206;48.782;9.252;2022-09-09T15:53:30;24.60;13.10
439;DHT22;206;48.782;9.252;2022-09-09T15:55:58;24.50;13.70
439;DHT22;206;48.782;9.252;2022-09-09T15:58:24;24.40;13.10
439;DHT22;206;48.782;9.252;2022-09-09T16:00:50;24.30;13.60
439;DHT22;206;48.782;9.252;2022-09-09T16:03:16;24.20;13.70
439;DHT22;206;48.782;9.252;2022-09-09T16:05:41;24.20;14.00
439;DHT22;206;48.782;9.252;2022-09-09T16:08:07;24.00;14.00
439;DHT22;206;48.782;9.252;2022-09-09T16:10:33;23.90;13.40
439;DHT22;206;48.782;9.252;2022-09-09T16:12:58;23.80;13.50
439;DHT22;206;48.782;9.252;2022-09-09T16:15:24;23.70;14.00
439;DHT22;206;48.782;9.252;2022-09-09T16:17:53;23.70;15.00
439;DHT22;206;48.782;9.252;2022-09-09T16:20:19;23.60;14.20
439;DHT22;206;48.782;9.252;2022-09-09T16:22:45;23.60;15.30
439;DHT22;206;48.782;9.252;2022-09-09T16:25:11;23.60;14.60
439;DHT22;206;48.782;9.252;2022-09-09T16:27:36;23.60;14.40
439;DHT22;206;48.782;9.252;2022-09-09T16:30:02;23.60;13.90
439;DHT22;206;48.782;9.252;2022-09-09T16:32:28;23.50;14.20
439;DHT22;206;48.782;9.252;2022-09-09T16:34:54;23.50;13.90
439;DHT22;206;48.782;9.252;2022-09-09T16:37:19;23.40;14.50
439;DHT22;206;48.782;9.252;2022-09-09T16:39:45;23.30;15.20
439;DHT22;206;48.782;9.252;2022-09-09T16:42:11;23.40;14.80
439;DHT22;206;48.782;9.252;2022-09-09T16:44:37;23.30;15.20
439;DHT22;206;48.782;9.252;2022-09-09T16:47:02;23.30;15.90
439;DHT22;206;48.782;9.252;2022-09-09T16:49:28;23.10;16.40
439;DHT22;206;48.782;9.252;2022-09-09T16:51:56;23.00;17.50
439;DHT22;206;48.782;9.252;2022-09-09T16:54:22;22.80;17.30
439;DHT22;206;48.782;9.252;2022-09-09T16:56:52;22.70;17.30
439;DHT22;206;48.782;9.252;2022-09-09T16:59:19;22.60;18.00
439;DHT22;206;48.782;9.252;2022-09-09T17:01:47;22.60;17.20
439;DHT22;206;48.782;9.252;2022-09-09T17:04:21;22.60;16.90
439;DHT22;206;48.782;9.252;2022-09-09T17:06:50;22.50;15.90
439;DHT22;206;48.782;9.252;2022-09-09T17:09:17;22.50;15.90
439;DHT22;206;48.782;9.252;2022-09-09T17:11:43;22.50;17.00
439;DHT22;206;48.782;9.252;2022-09-09T17:14:14;22.40;16.80
439;DHT22;206;48.782;9.252;2022-09-09T17:16:40;22.30;15.90
439;DHT22;206;48.782;9.252;2022-09-09T17:19:06;22.30;17.00
439;DHT22;206;48.782;9.252;2022-09-09T17:21:33;22.20;16.90
439;DHT22;206;48.782;9.252;2022-09-09T17:23:59;22.20;16.90
439;DHT22;206;48.782;9.252;2022-09-09T17:26:28;22.10;16.80
439;DHT22;206;48.782;9.252;2022-09-09T17:28:55;22.00;17.30
439;DHT22;206;48.782;9.252;2022-09-09T17:31:21;21.90;17.20
439;DHT22;206;48.782;9.252;2022-09-09T17:33:49;21.80;18.40
439;DHT22;206;48.782;9.252;2022-09-09T17:36:33;21.70;18.20
439;DHT22;206;48.782;9.252;2022-09-09T17:39:00;21.60;18.40
439;DHT22;206;48.782;9.252;2022-09-09T17:41:36;21.60;19.00
439;DHT22;206;48.782;9.252;2022-09-09T17:44:03;21.50;19.60
439;DHT22;206;48.782;9.252;2022-09-09T17:46:39;21.40;21.00
439;DHT22;206;48.782;9.252;2022-09-09T17:49:08;21.40;19.80
439;DHT22;206;48.782;9.252;2022-09-09T17:51:35;21.40;19.90
439;DHT22;206;48.782;9.252;2022-09-09T17:54:08;21.40;19.90
439;DHT22;206;48.782;9.252;2022-09-09T17:56:34;21.40;19.80
439;DHT22;206;48.782;9.252;2022-09-09T17:59:02;21.30;20.00
439;DHT22;206;48.782;9.252;2022-09-09T18:01:30;21.30;20.20
439;DHT22;206;48.782;9.252;2022-09-09T18:03:58;21.30;20.60
439;DHT22;206;48.782;9.252;2022-09-09T18:06:36;21.30;21.20
439;DHT22;206;48.782;9.252;2022-09-09T18:09:08;21.20;21.10
439;DHT22;206;48.782;9.252;2022-09-09T18:11:39;21.10;21.50
439;DHT22;206;48.782;9.252;2022-09-09T18:14:08;21.10;22.00
439;DHT22;206;48.782;9.252;2022-09-09T18:16:35;21.00;22.50
439;DHT22;206;48.782;9.252;2022-09-09T18:19:04;21.00;22.70
439;DHT22;206;48.782;9.252;2022-09-09T18:21:31;21.00;22.40
439;DHT22;206;48.782;9.252;2022-09-09T18:23:59;21.00;22.60
439;DHT22;206;48.782;9.252;2022-09-09T18:26:25;21.00;22.50
439;DHT22;206;48.782;9.252;2022-09-09T18:28:56;20.90;22.50
439;DHT22;206;48.782;9.252;2022-09-09T18:31:24;20.90;22.50
439;DHT22;206;48.782;9.252;2022-09-09T18:33:51;21.00;22.40
439;DHT22;206;48.782;9.252;2022-09-09T18:36:24;20.90;22.20
439;DHT22;206;48.782;9.252;2022-09-09T18:38:50;20.90;22.30
439;DHT22;206;48.782;9.252;2022-09-09T18:41:28;20.90;22.40
439;DHT22;206;48.782;9.252;2022-09-09T18:43:57;20.90;22.30
439;DHT22;206;48.782;9.252;2022-09-09T18:46:24;20.90;22.70
439;DHT22;206;48.782;9.252;2022-09-09T18:48:50;20.90;22.40
439;DHT22;206;48.782;9.252;2022-09-09T18:51:19;20.80;22.60
439;DHT22;206;48.782;9.252;2022-09-09T18:53:56;20.80;22.70
439;DHT22;206;48.782;9.252;2022-09-09T18:56:22;20.80;23.40
439;DHT22;206;48.782;9.252;2022-09-09T18:58:56;20.80;22.70
439;DHT22;206;48.782;9.252;2022-09-09T19:01:23;20.80;22.80